sensor_id;sensor_type;location;lat;lon;timestamp;P1;durP1;ratioP1;P2;durP2;ratioP2
15331;SDS011;7766;51.534;6.722;2023-04-29T00:00:52;43.10;;;26.77;;
15331;SDS011;7766;51.534;6.722;2023-04-29T00:01:53;44.57;;;27.27;;
15331;SDS011;7766;51.534;6.722;2023-04-29T00:02:58;42.00;;;26.77;;
15331;SDS011;7766;51.534;6.722;2023-04-29T00:04:00;41.77;;;26.83;;
15331;SDS011;7766;51.534;6.722;2023-04-29T00:05:01;48.83;;;27.87;;
15331;SDS011;7766;51.534;6.722;2023-04-29T00:06:03;42.73;;;27.27;;
15331;SDS011;7766;51.534;6.722;2023-04-29T00:07:04;46.43;;;25.97;;
15331;SDS011;7766;51.534;6.722;2023-04-29T00:08:07;50.27;;;29.00;;
15331;SDS011;7766;51.534;6.722;2023-04-29T00:09:08;46.40;;;27.23;;
15331;SDS011;7766;51.534;6.722;2023-04-29T00:10:09;51.43;;;29.23;;
15331;SDS011;7766;51.534;6.722;2023-04-29T00:11:13;44.80;;;28.13;;
15331;SDS011;7766;51.534;6.722;2023-04-29T00:12:14;48.10;;;29.47;;
15331;SDS011;7766;51.534;6.722;2023-04-29T00:13:15;48.17;;;28.67;;
15331;SDS011;7766;51.534;6.722;2023-04-29T00:14:16;46.00;;;28.60;;
15331;SDS011;7766;51.534;6.722;2023-04-29T00:15:17;48.03;;;29.83;;
15331;SDS011;7766;51.534;6.722;2023-04-29T00:16:18;44.63;;;27.70;;
15331;SDS011;7766;51.534;6.722;2023-04-29T00:17:19;46.40;;;28.67;;
15331;SDS011;7766;51.534;6.722;2023-04-29T00:18:20;46.20;;;28.30;;
15331;SDS011;7766;51.534;6.722;2023-04-29T00:19:21;47.43;;;28.70;;
15331;SDS011;7766;51.534;6.722;2023-04-29T00:20:22;43.47;;;28.87;;
15331;SDS011;7766;51.534;6.722;2023-04-29T00:21:23;44.13;;;27.67;;
15331;SDS011;7766;51.534;6.722;2023-04-29T00:22:26;48.17;;;28.80;;
15331;SDS011;7766;51.534;6.722;2023-04-29T00:23:27;47.27;;;28.93;;
15331;SDS011;7766;51.534;6.722;2023-04-29T00:24:28;43.57;;;26.13;;
15331;SDS011;7766;51.534;6.722;2023-04-29T00:25:29;50.00;;;29.53;;
15331;SDS011;7766;51.534;6.722;2023-04-29T00:26:30;48.97;;;30.23;;
15331;SDS011;7766;51.534;6.722;2023-04-29T00:27:31;47.53;;;29.77;;
15331;SDS011;7766;51.534;6.722;2023-04-29T00:28:32;50.93;;;29.43;;
15331;SDS011;7766;51.534;6.722;2023-04-29T00:29:33;54.03;;;30.80;;
15331;SDS011;7766;51.534;6.722;2023-04-29T00:30:34;53.13;;;31.13;;
15331;SDS011;7766;51.534;6.722;2023-04-29T00:31:35;55.73;;;32.50;;
15331;SDS011;7766;51.534;6.722;2023-04-29T00:32:36;55.23;;;31.53;;
15331;SDS011;7766;51.534;6.722;2023-04-29T00:33:37;52.00;;;31.40;;
15331;SDS011;7766;51.534;6.722;2023-04-29T00:34:39;58.67;;;32.77;;
15331;SDS011;7766;51.534;6.722;2023-04-29T00:35:41;61.20;;;34.80;;
15331;SDS011;7766;51.534;6.722;2023-04-29T00:36:42;63.10;;;34.10;;
15331;SDS011;7766;51.534;6.722;2023-04-29T00:37:43;61.20;;;34.23;;
15331;SDS011;7766;51.534;6.722;2023-04-29T00:38:44;64.90;;;34.93;;
15331;SDS011;7766;51.534;6.722;2023-04-29T00:39:45;66.93;;;35.57;;
15331;SDS011;7766;51.534;6.722;2023-04-29T00:40:47;69.00;;;36.90;;
15331;SDS011;7766;51.534;6.722;2023-04-29T00:41:48;68.43;;;35.50;;
15331;SDS011;7766;51.534;6.722;2023-04-29T00:42:49;65.50;;;35.03;;
15331;SDS011;7766;51.534;6.722;2023-04-29T00:43:50;69.30;;;35.20;;
15331;SDS011;7766;51.534;6.722;2023-04-29T00:44:51;66.27;;;36.57;;
15331;SDS011;7766;51.534;6.722;2023-04-29T00:45:52;70.50;;;37.70;;
15331;SDS011;7766;51.534;6.722;2023-04-29T00:46:53;62.90;;;34.23;;
15331;SDS011;7766;51.534;6.722;2023-04-29T00:47:56;68.20;;;36.57;;
15331;SDS011;7766;51.534;6.722;2023-04-29T00:48:57;68.07;;;35.90;;
15331;SDS011;7766;51.534;6.722;2023-04-29T00:49:58;68.80;;;36.43;;
15331;SDS011;7766;51.534;6.722;2023-04-29T00:50:59;67.27;;;36.60;;
15331;SDS011;7766;51.534;6.722;2023-04-29T00:52:00;64.67;;;36.17;;
15331;SDS011;7766;51.534;6.722;2023-04-29T00:53:02;68.70;;;37.20;;
15331;SDS011;7766;51.534;6.722;2023-04-29T00:54:03;70.87;;;37.37;;
15331;SDS011;7766;51.534;6.722;2023-04-29T00:55:05;68.50;;;37.70;;
15331;SDS011;7766;51.534;6.722;2023-04-29T00:56:07;69.13;;;38.00;;
15331;SDS011;7766;51.534;6.722;2023-04-29T00:57:09;70.80;;;37.97;;
15331;SDS011;7766;51.534;6.722;2023-04-29T00:58:10;64.87;;;36.33;;
15331;SDS011;7766;51.534;6.722;2023-04-29T00:59:11;72.70;;;39.03;;
15331;SDS011;7766;51.534;6.722;2023-04-29T01:00:14;69.07;;;35.13;;
15331;SDS011;7766;51.534;6.722;2023-04-29T01:01:15;69.77;;;37.63;;
15331;SDS011;7766;51.534;6.722;2023-04-29T01:02:16;72.87;;;36.43;;
15331;SDS011;7766;51.534;6.722;2023-04-29T01:03:17;73.40;;;39.03;;
15331;SDS011;7766;51.534;6.722;2023-04-29T01:04:19;66.83;;;36.70;;
15331;SDS011;7766;51.534;6.722;2023-04-29T01:05:21;69.30;;;36.93;;
15331;SDS011;7766;51.534;6.722;2023-04-29T01:08:55;74.23;;;37.80;;
15331;SDS011;7766;51.534;6.722;2023-04-29T01:10:34;78.37;;;37.93;;
15331;SDS011;7766;51.534;6.722;2023-04-29T01:12:10;74.73;;;36.67;;
15331;SDS011;7766;51.534;6.722;2023-04-29T01:13:16;80.30;;;38.07;;
15331;SDS011;7766;51.534;6.722;2023-04-29T01:14:33;78.63;;;37.83;;
15331;SDS011;7766;51.534;6.722;2023-04-29T01:15:38;73.20;;;37.77;;
15331;SDS011;7766;51.534;6.722;2023-04-29T01:16:50;74.93;;;39.10;;
15331;SDS011;7766;51.534;6.722;2023-04-29T01:18:38;86.30;;;40.23;;
15331;SDS011;7766;51.534;6.722;2023-04-29T01:20:37;73.93;;;37.27;;
15331;SDS011;7766;51.534;6.722;2023-04-29T01:21:45;78.87;;;37.43;;
15331;SDS011;7766;51.534;6.722;2023-04-29T01:22:47;75.97;;;35.97;;
15331;SDS011;7766;51.534;6.722;2023-04-29T01:23:48;71.37;;;37.03;;
15331;SDS011;7766;51.534;6.722;2023-04-29T01:24:55;70.40;;;35.43;;
15331;SDS011;7766;51.534;6.722;2023-04-29T01:25:56;66.93;;;32.43;;
15331;SDS011;7766;51.534;6.722;2023-04-29T01:26:59;67.07;;;33.70;;
15331;SDS011;7766;51.534;6.722;2023-04-29T01:31:50;62.73;;;29.33;;
15331;SDS011;7766;51.534;6.722;2023-04-29T01:33:16;61.30;;;31.43;;
15331;SDS011;7766;51.534;6.722;2023-04-29T01:34:28;60.93;;;30.63;;
15331;SDS011;7766;51.534;6.722;2023-04-29T01:35:49;60.73;;;30.83;;
15331;SDS011;7766;51.534;6.722;2023-04-29T01:38:08;60.83;;;30.33;;
15331;SDS011;7766;51.534;6.722;2023-04-29T01:40:36;58.47;;;31.17;;
15331;SDS011;7766;51.534;6.722;2023-04-29T01:41:42;65.63;;;34.23;;
15331;SDS011;7766;51.534;6.722;2023-04-29T01:43:04;70.30;;;32.17;;
15331;SDS011;7766;51.534;6.722;2023-04-29T01:44:14;62.03;;;32.50;;
15331;SDS011;7766;51.534;6.722;2023-04-29T01:45:17;65.10;;;31.67;;
15331;SDS011;7766;51.534;6.722;2023-04-29T01:46:20;64.40;;;32.63;;
15331;SDS011;7766;51.534;6.722;2023-04-29T01:47:21;61.63;;;31.03;;
15331;SDS011;7766;51.534;6.722;2023-04-29T01:48:23;61.80;;;33.27;;
15331;SDS011;7766;51.534;6.722;2023-04-29T01:49:24;61.20;;;31.67;;
15331;SDS011;7766;51.534;6.722;2023-04-29T01:50:26;60.40;;;30.37;;
15331;SDS011;7766;51.534;6.722;2023-04-29T01:51:27;57.83;;;30.00;;
15331;SDS011;7766;51.534;6.722;2023-04-29T01:52:28;57.43;;;30.13;;
15331;SDS011;7766;51.534;6.722;2023-04-29T01:53:29;54.83;;;28.53;;
15331;SDS011;7766;51.534;6.722;2023-04-29T01:54:30;50.80;;;28.73;;
15331;SDS011;7766;51.534;6.722;2023-04-29T01:55:31;54.43;;;30.20;;
15331;SDS011;7766;51.534;6.722;2023-04-29T01:56:32;53.57;;;28.70;;
15331;SDS011;7766;51.534;6.722;2023-04-29T01:57:33;51.90;;;28.63;;
15331;SDS011;7766;51.534;6.722;2023-04-29T01:58:34;50.83;;;27.13;;
15331;SDS011;7766;51.534;6.722;2023-04-29T01:59:35;49.50;;;27.87;;
15331;SDS011;7766;51.534;6.722;2023-04-29T02:00:36;51.10;;;29.13;;
15331;SDS011;7766;51.534;6.722;2023-04-29T02:01:37;49.87;;;27.67;;
15331;SDS011;7766;51.534;6.722;2023-04-29T02:02:38;46.83;;;25.53;;
15331;SDS011;7766;51.534;6.722;2023-04-29T02:03:39;49.17;;;26.37;;
15331;SDS011;7766;51.534;6.722;2023-04-29T02:04:40;46.77;;;24.13;;
15331;SDS011;7766;51.534;6.722;2023-04-29T02:05:42;43.53;;;25.90;;
15331;SDS011;7766;51.534;6.722;2023-04-29T02:06:43;44.03;;;25.47;;
15331;SDS011;7766;51.534;6.722;2023-04-29T02:07:44;44.47;;;25.37;;
15331;SDS011;7766;51.534;6.722;2023-04-29T02:08:45;46.07;;;25.93;;
15331;SDS011;7766;51.534;6.722;2023-04-29T02:09:46;42.83;;;24.97;;
15331;SDS011;7766;51.534;6.722;2023-04-29T02:10:53;44.10;;;24.57;;
15331;SDS011;7766;51.534;6.722;2023-04-29T02:11:55;44.03;;;24.97;;
15331;SDS011;7766;51.534;6.722;2023-04-29T02:12:56;46.47;;;24.13;;
15331;SDS011;7766;51.534;6.722;2023-04-29T02:13:57;45.63;;;25.50;;
15331;SDS011;7766;51.534;6.722;2023-04-29T02:14:58;42.77;;;24.20;;
15331;SDS011;7766;51.534;6.722;2023-04-29T02:16:06;41.13;;;22.67;;
15331;SDS011;7766;51.534;6.722;2023-04-29T02:17:12;45.87;;;24.57;;
15331;SDS011;7766;51.534;6.722;2023-04-29T02:18:13;43.60;;;24.17;;
15331;SDS011;7766;51.534;6.722;2023-04-29T02:19:15;42.87;;;24.20;;
15331;SDS011;7766;51.534;6.722;2023-04-29T02:20:16;42.17;;;24.33;;
15331;SDS011;7766;51.534;6.722;2023-04-29T02:21:17;43.83;;;24.93;;
15331;SDS011;7766;51.534;6.722;2023-04-29T02:22:17;41.40;;;23.67;;
15331;SDS011;7766;51.534;6.722;2023-04-29T02:23:18;40.83;;;22.53;;
15331;SDS011;7766;51.534;6.722;2023-04-29T02:24:19;41.07;;;24.23;;
15331;SDS011;7766;51.534;6.722;2023-04-29T02:25:21;41.70;;;24.97;;
15331;SDS011;7766;51.534;6.722;2023-04-29T02:26:22;43.30;;;24.07;;
15331;SDS011;7766;51.534;6.722;2023-04-29T02:27:23;39.13;;;23.03;;
15331;SDS011;7766;51.534;6.722;2023-04-29T02:28:25;41.83;;;23.20;;
15331;SDS011;7766;51.534;6.722;2023-04-29T02:29:26;40.17;;;24.50;;
15331;SDS011;7766;51.534;6.722;2023-04-29T02:30:29;40.63;;;22.17;;
15331;SDS011;7766;51.534;6.722;2023-04-29T02:31:31;40.93;;;23.53;;
15331;SDS011;7766;51.534;6.722;2023-04-29T02:32:32;38.33;;;24.07;;
15331;SDS011;7766;51.534;6.722;2023-04-29T02:33:32;39.70;;;22.47;;
15331;SDS011;7766;51.534;6.722;2023-04-29T02:34:33;40.57;;;23.97;;
15331;SDS011;7766;51.534;6.722;2023-04-29T02:35:34;39.70;;;23.50;;
15331;SDS011;7766;51.534;6.722;2023-04-29T02:36:36;42.73;;;24.13;;
15331;SDS011;7766;51.534;6.722;2023-04-29T02:37:37;43.23;;;23.47;;
15331;SDS011;7766;51.534;6.722;2023-04-29T02:38:38;43.07;;;24.00;;
15331;SDS011;7766;51.534;6.722;2023-04-29T02:39:39;38.60;;;23.50;;
15331;SDS011;7766;51.534;6.722;2023-04-29T02:40:44;36.60;;;23.10;;
15331;SDS011;7766;51.534;6.722;2023-04-29T02:41:46;38.73;;;23.37;;
15331;SDS011;7766;51.534;6.722;2023-04-29T02:42:47;39.93;;;22.43;;
15331;SDS011;7766;51.534;6.722;2023-04-29T02:43:48;42.40;;;23.90;;
15331;SDS011;7766;51.534;6.722;2023-04-29T02:44:49;40.13;;;24.20;;
15331;SDS011;7766;51.534;6.722;2023-04-29T02:45:50;37.77;;;22.70;;
15331;SDS011;7766;51.534;6.722;2023-04-29T02:46:51;43.30;;;23.70;;
15331;SDS011;7766;51.534;6.722;2023-04-29T02:47:52;36.80;;;23.00;;
15331;SDS011;7766;51.534;6.722;2023-04-29T02:48:53;39.47;;;23.27;;
15331;SDS011;7766;51.534;6.722;2023-04-29T02:49:54;37.63;;;23.47;;
15331;SDS011;7766;51.534;6.722;2023-04-29T02:50:55;39.97;;;23.87;;
15331;SDS011;7766;51.534;6.722;2023-04-29T02:51:56;38.83;;;22.30;;
15331;SDS011;7766;51.534;6.722;2023-04-29T02:52:57;37.97;;;22.73;;
15331;SDS011;7766;51.534;6.722;2023-04-29T02:53:58;35.27;;;22.87;;
15331;SDS011;7766;51.534;6.722;2023-04-29T02:54:59;38.03;;;22.67;;
15331;SDS011;7766;51.534;6.722;2023-04-29T02:56:00;38.73;;;22.63;;
15331;SDS011;7766;51.534;6.722;2023-04-29T02:57:01;36.83;;;21.07;;
15331;SDS011;7766;51.534;6.722;2023-04-29T02:58:02;37.70;;;23.40;;
15331;SDS011;7766;51.534;6.722;2023-04-29T02:59:03;40.77;;;23.07;;
15331;SDS011;7766;51.534;6.722;2023-04-29T03:00:04;39.97;;;22.73;;
15331;SDS011;7766;51.534;6.722;2023-04-29T03:01:05;38.00;;;22.03;;
15331;SDS011;7766;51.534;6.722;2023-04-29T03:02:07;38.13;;;22.70;;
15331;SDS011;7766;51.534;6.722;2023-04-29T03:03:08;34.33;;;21.70;;
15331;SDS011;7766;51.534;6.722;2023-04-29T03:04:09;37.80;;;22.17;;
15331;SDS011;7766;51.534;6.722;2023-04-29T03:05:10;37.40;;;23.73;;
15331;SDS011;7766;51.534;6.722;2023-04-29T03:06:11;40.20;;;22.93;;
15331;SDS011;7766;51.534;6.722;2023-04-29T03:07:12;38.77;;;23.03;;
15331;SDS011;7766;51.534;6.722;2023-04-29T03:08:15;37.30;;;22.33;;
15331;SDS011;7766;51.534;6.722;2023-04-29T03:09:16;41.20;;;22.77;;
15331;SDS011;7766;51.534;6.722;2023-04-29T03:10:18;37.40;;;22.77;;
15331;SDS011;7766;51.534;6.722;2023-04-29T03:11:19;34.20;;;21.30;;
15331;SDS011;7766;51.534;6.722;2023-04-29T03:12:23;38.30;;;22.43;;
15331;SDS011;7766;51.534;6.722;2023-04-29T03:13:24;36.63;;;22.43;;
15331;SDS011;7766;51.534;6.722;2023-04-29T03:14:25;36.83;;;22.70;;
15331;SDS011;7766;51.534;6.722;2023-04-29T03:15:27;37.20;;;22.20;;
15331;SDS011;7766;51.534;6.722;2023-04-29T03:16:28;34.83;;;22.57;;
15331;SDS011;7766;51.534;6.722;2023-04-29T03:17:30;35.00;;;21.43;;
15331;SDS011;7766;51.534;6.722;2023-04-29T03:18:31;34.40;;;21.03;;
15331;SDS011;7766;51.534;6.722;2023-04-29T03:19:32;33.83;;;21.43;;
15331;SDS011;7766;51.534;6.722;2023-04-29T03:20:34;38.97;;;22.53;;
15331;SDS011;7766;51.534;6.722;2023-04-29T03:21:35;33.70;;;21.43;;
15331;SDS011;7766;51.534;6.722;2023-04-29T03:22:36;38.97;;;22.77;;
15331;SDS011;7766;51.534;6.722;2023-04-29T03:23:37;34.77;;;22.43;;
15331;SDS011;7766;51.534;6.722;2023-04-29T03:24:41;35.80;;;21.37;;
15331;SDS011;7766;51.534;6.722;2023-04-29T03:25:43;35.50;;;21.03;;
15331;SDS011;7766;51.534;6.722;2023-04-29T03:26:44;36.23;;;22.13;;
15331;SDS011;7766;51.534;6.722;2023-04-29T03:27:45;37.33;;;22.27;;
15331;SDS011;7766;51.534;6.722;2023-04-29T03:28:46;34.80;;;21.43;;
15331;SDS011;7766;51.534;6.722;2023-04-29T03:29:47;34.13;;;20.93;;
15331;SDS011;7766;51.534;6.722;2023-04-29T03:30:48;36.27;;;20.63;;
15331;SDS011;7766;51.534;6.722;2023-04-29T03:31:49;33.63;;;21.13;;
15331;SDS011;7766;51.534;6.722;2023-04-29T03:32:50;34.97;;;21.13;;
15331;SDS011;7766;51.534;6.722;2023-04-29T03:33:51;34.60;;;21.87;;
15331;SDS011;7766;51.534;6.722;2023-04-29T03:34:52;32.97;;;21.27;;
15331;SDS011;7766;51.534;6.722;2023-04-29T03:35:54;37.60;;;21.67;;
15331;SDS011;7766;51.534;6.722;2023-04-29T03:36:55;35.37;;;20.87;;
15331;SDS011;7766;51.534;6.722;2023-04-29T03:37:56;32.27;;;19.83;;
15331;SDS011;7766;51.534;6.722;2023-04-29T03:38:57;30.43;;;20.73;;
15331;SDS011;7766;51.534;6.722;2023-04-29T03:39:58;36.23;;;21.47;;
15331;SDS011;7766;51.534;6.722;2023-04-29T03:40:59;31.00;;;21.17;;
15331;SDS011;7766;51.534;6.722;2023-04-29T03:42:00;31.47;;;21.23;;
15331;SDS011;7766;51.534;6.722;2023-04-29T03:43:02;33.83;;;20.40;;
15331;SDS011;7766;51.534;6.722;2023-04-29T03:44:03;34.80;;;20.67;;
15331;SDS011;7766;51.534;6.722;2023-04-29T03:45:05;30.27;;;20.20;;
15331;SDS011;7766;51.534;6.722;2023-04-29T03:46:06;30.70;;;19.90;;
15331;SDS011;7766;51.534;6.722;2023-04-29T03:47:07;32.67;;;20.90;;
15331;SDS011;7766;51.534;6.722;2023-04-29T03:48:08;31.23;;;20.67;;
15331;SDS011;7766;51.534;6.722;2023-04-29T03:49:09;34.87;;;20.63;;
15331;SDS011;7766;51.534;6.722;2023-04-29T03:50:10;34.27;;;20.50;;
15331;SDS011;7766;51.534;6.722;2023-04-29T03:51:11;34.13;;;20.13;;
15331;SDS011;7766;51.534;6.722;2023-04-29T03:52:13;32.90;;;19.93;;
15331;SDS011;7766;51.534;6.722;2023-04-29T03:53:15;32.77;;;19.50;;
15331;SDS011;7766;51.534;6.722;2023-04-29T03:54:16;33.43;;;20.33;;
15331;SDS011;7766;51.534;6.722;2023-04-29T03:55:17;33.83;;;20.93;;
15331;SDS011;7766;51.534;6.722;2023-04-29T03:56:18;34.00;;;21.07;;
15331;SDS011;7766;51.534;6.722;2023-04-29T03:57:19;30.70;;;20.07;;
15331;SDS011;7766;51.534;6.722;2023-04-29T03:58:20;32.90;;;20.90;;
15331;SDS011;7766;51.534;6.722;2023-04-29T03:59:22;35.63;;;20.90;;
15331;SDS011;7766;51.534;6.722;2023-04-29T04:00:23;35.13;;;22.00;;
15331;SDS011;7766;51.534;6.722;2023-04-29T04:01:25;31.67;;;20.43;;
15331;SDS011;7766;51.534;6.722;2023-04-29T04:02:26;34.97;;;20.97;;
15331;SDS011;7766;51.534;6.722;2023-04-29T04:03:27;35.73;;;21.60;;
15331;SDS011;7766;51.534;6.722;2023-04-29T04:04:28;32.23;;;21.47;;
15331;SDS011;7766;51.534;6.722;2023-04-29T04:05:29;28.73;;;19.00;;
15331;SDS011;7766;51.534;6.722;2023-04-29T04:06:30;32.20;;;20.27;;
15331;SDS011;7766;51.534;6.722;2023-04-29T04:07:31;31.63;;;19.70;;
15331;SDS011;7766;51.534;6.722;2023-04-29T04:08:32;29.70;;;20.10;;
15331;SDS011;7766;51.534;6.722;2023-04-29T04:09:32;34.73;;;20.43;;
15331;SDS011;7766;51.534;6.722;2023-04-29T04:10:33;35.50;;;20.53;;
15331;SDS011;7766;51.534;6.722;2023-04-29T04:11:34;34.20;;;20.53;;
15331;SDS011;7766;51.534;6.722;2023-04-29T04:12:36;32.83;;;20.57;;
15331;SDS011;7766;51.534;6.722;2023-04-29T04:13:36;29.53;;;19.33;;
15331;SDS011;7766;51.534;6.722;2023-04-29T04:14:38;33.03;;;18.67;;
15331;SDS011;7766;51.534;6.722;2023-04-29T04:15:39;31.20;;;20.03;;
15331;SDS011;7766;51.534;6.722;2023-04-29T04:16:41;28.10;;;19.93;;
15331;SDS011;7766;51.534;6.722;2023-04-29T04:17:42;32.57;;;20.23;;
15331;SDS011;7766;51.534;6.722;2023-04-29T04:18:43;29.97;;;19.70;;
15331;SDS011;7766;51.534;6.722;2023-04-29T04:19:44;30.47;;;20.10;;
15331;SDS011;7766;51.534;6.722;2023-04-29T04:20:45;31.00;;;20.30;;
15331;SDS011;7766;51.534;6.722;2023-04-29T04:21:46;31.47;;;20.00;;
15331;SDS011;7766;51.534;6.722;2023-04-29T04:22:47;29.83;;;19.83;;
15331;SDS011;7766;51.534;6.722;2023-04-29T04:23:48;31.10;;;19.47;;
15331;SDS011;7766;51.534;6.722;2023-04-29T04:24:50;30.13;;;19.00;;
15331;SDS011;7766;51.534;6.722;2023-04-29T04:25:53;32.73;;;19.20;;
15331;SDS011;7766;51.534;6.722;2023-04-29T04:26:54;27.97;;;17.83;;
15331;SDS011;7766;51.534;6.722;2023-04-29T04:27:55;27.37;;;17.97;;
15331;SDS011;7766;51.534;6.722;2023-04-29T04:28:56;28.93;;;19.07;;
15331;SDS011;7766;51.534;6.722;2023-04-29T04:29:57;30.00;;;18.63;;
15331;SDS011;7766;51.534;6.722;2023-04-29T04:30:58;32.00;;;19.23;;
15331;SDS011;7766;51.534;6.722;2023-04-29T04:31:59;29.90;;;19.63;;
15331;SDS011;7766;51.534;6.722;2023-04-29T04:33:00;30.40;;;18.77;;
15331;SDS011;7766;51.534;6.722;2023-04-29T04:34:01;28.87;;;19.57;;
15331;SDS011;7766;51.534;6.722;2023-04-29T04:35:02;30.13;;;19.27;;
15331;SDS011;7766;51.534;6.722;2023-04-29T04:36:03;30.23;;;19.17;;
15331;SDS011;7766;51.534;6.722;2023-04-29T04:37:05;29.50;;;19.53;;
15331;SDS011;7766;51.534;6.722;2023-04-29T04:38:06;28.60;;;19.17;;
15331;SDS011;7766;51.534;6.722;2023-04-29T04:39:08;28.80;;;19.17;;
15331;SDS011;7766;51.534;6.722;2023-04-29T04:40:09;28.73;;;18.97;;
15331;SDS011;7766;51.534;6.722;2023-04-29T04:41:11;34.13;;;19.93;;
15331;SDS011;7766;51.534;6.722;2023-04-29T04:42:12;28.53;;;18.97;;
15331;SDS011;7766;51.534;6.722;2023-04-29T04:43:13;30.77;;;20.37;;
15331;SDS011;7766;51.534;6.722;2023-04-29T04:44:14;30.37;;;18.93;;
15331;SDS011;7766;51.534;6.722;2023-04-29T04:45:15;29.63;;;19.13;;
15331;SDS011;7766;51.534;6.722;2023-04-29T04:46:16;31.30;;;19.70;;
15331;SDS011;7766;51.534;6.722;2023-04-29T04:47:17;29.93;;;19.17;;
15331;SDS011;7766;51.534;6.722;2023-04-29T04:48:18;29.30;;;19.20;;
15331;SDS011;7766;51.534;6.722;2023-04-29T04:49:19;30.70;;;20.50;;
15331;SDS011;7766;51.534;6.722;2023-04-29T04:50:20;29.43;;;18.17;;
15331;SDS011;7766;51.534;6.722;2023-04-29T04:51:20;28.93;;;18.43;;
15331;SDS011;7766;51.534;6.722;2023-04-29T04:52:21;31.27;;;20.47;;
15331;SDS011;7766;51.534;6.722;2023-04-29T04:53:22;29.13;;;19.10;;
15331;SDS011;7766;51.534;6.722;2023-04-29T04:54:23;28.40;;;19.13;;
15331;SDS011;7766;51.534;6.722;2023-04-29T04:55:25;28.37;;;19.43;;
15331;SDS011;7766;51.534;6.722;2023-04-29T04:56:26;30.60;;;18.60;;
15331;SDS011;7766;51.534;6.722;2023-04-29T04:57:27;32.47;;;19.90;;
15331;SDS011;7766;51.534;6.722;2023-04-29T04:58:28;28.03;;;17.80;;
15331;SDS011;7766;51.534;6.722;2023-04-29T04:59:30;27.90;;;18.53;;
15331;SDS011;7766;51.534;6.722;2023-04-29T05:00:32;25.63;;;16.67;;
15331;SDS011;7766;51.534;6.722;2023-04-29T05:01:33;31.30;;;18.23;;
15331;SDS011;7766;51.534;6.722;2023-04-29T05:02:34;26.43;;;18.60;;
15331;SDS011;7766;51.534;6.722;2023-04-29T05:03:35;27.17;;;18.80;;
15331;SDS011;7766;51.534;6.722;2023-04-29T05:04:36;26.70;;;17.47;;
15331;SDS011;7766;51.534;6.722;2023-04-29T05:05:37;27.90;;;18.80;;
15331;SDS011;7766;51.534;6.722;2023-04-29T05:06:38;26.13;;;17.43;;
15331;SDS011;7766;51.534;6.722;2023-04-29T05:07:39;29.33;;;18.57;;
15331;SDS011;7766;51.534;6.722;2023-04-29T05:08:40;26.57;;;18.33;;
15331;SDS011;7766;51.534;6.722;2023-04-29T05:09:41;27.93;;;17.83;;
15331;SDS011;7766;51.534;6.722;2023-04-29T05:10:42;25.90;;;17.80;;
15331;SDS011;7766;51.534;6.722;2023-04-29T05:11:43;27.07;;;18.00;;
15331;SDS011;7766;51.534;6.722;2023-04-29T05:12:45;27.93;;;18.87;;
15331;SDS011;7766;51.534;6.722;2023-04-29T05:13:46;27.17;;;17.43;;
15331;SDS011;7766;51.534;6.722;2023-04-29T05:14:51;29.23;;;19.00;;
15331;SDS011;7766;51.534;6.722;2023-04-29T05:15:52;28.80;;;18.73;;
15331;SDS011;7766;51.534;6.722;2023-04-29T05:16:57;25.43;;;17.83;;
15331;SDS011;7766;51.534;6.722;2023-04-29T05:17:58;28.50;;;19.33;;
15331;SDS011;7766;51.534;6.722;2023-04-29T05:19:00;27.20;;;18.10;;
15331;SDS011;7766;51.534;6.722;2023-04-29T05:20:01;27.43;;;18.47;;
15331;SDS011;7766;51.534;6.722;2023-04-29T05:21:02;27.40;;;18.57;;
15331;SDS011;7766;51.534;6.722;2023-04-29T05:22:03;25.63;;;17.73;;
15331;SDS011;7766;51.534;6.722;2023-04-29T05:23:04;27.77;;;17.97;;
15331;SDS011;7766;51.534;6.722;2023-04-29T05:24:05;28.60;;;18.50;;
15331;SDS011;7766;51.534;6.722;2023-04-29T05:25:06;26.93;;;18.30;;
15331;SDS011;7766;51.534;6.722;2023-04-29T05:26:07;26.97;;;18.13;;
15331;SDS011;7766;51.534;6.722;2023-04-29T05:27:08;29.33;;;17.77;;
15331;SDS011;7766;51.534;6.722;2023-04-29T05:28:09;27.13;;;18.67;;
15331;SDS011;7766;51.534;6.722;2023-04-29T05:29:10;31.47;;;18.30;;
15331;SDS011;7766;51.534;6.722;2023-04-29T05:30:12;27.07;;;18.47;;
15331;SDS011;7766;51.534;6.722;2023-04-29T05:31:13;27.50;;;18.43;;
15331;SDS011;7766;51.534;6.722;2023-04-29T05:32:14;25.63;;;16.73;;
15331;SDS011;7766;51.534;6.722;2023-04-29T05:33:15;27.63;;;17.63;;
15331;SDS011;7766;51.534;6.722;2023-04-29T05:34:16;30.03;;;17.70;;
15331;SDS011;7766;51.534;6.722;2023-04-29T05:35:17;26.63;;;17.30;;
15331;SDS011;7766;51.534;6.722;2023-04-29T05:36:17;24.80;;;18.13;;
15331;SDS011;7766;51.534;6.722;2023-04-29T05:37:19;27.57;;;17.73;;
15331;SDS011;7766;51.534;6.722;2023-04-29T05:38:20;23.37;;;17.43;;
15331;SDS011;7766;51.534;6.722;2023-04-29T05:39:27;25.70;;;17.63;;
15331;SDS011;7766;51.534;6.722;2023-04-29T05:40:28;26.93;;;17.30;;
15331;SDS011;7766;51.534;6.722;2023-04-29T05:41:29;24.60;;;16.90;;
15331;SDS011;7766;51.534;6.722;2023-04-29T05:42:30;23.97;;;16.33;;
15331;SDS011;7766;51.534;6.722;2023-04-29T05:43:31;23.90;;;17.03;;
15331;SDS011;7766;51.534;6.722;2023-04-29T05:44:32;23.83;;;16.60;;
15331;SDS011;7766;51.534;6.722;2023-04-29T05:45:33;26.17;;;17.53;;
15331;SDS011;7766;51.534;6.722;2023-04-29T05:46:34;23.90;;;16.37;;
15331;SDS011;7766;51.534;6.722;2023-04-29T05:47:35;25.13;;;16.53;;
15331;SDS011;7766;51.534;6.722;2023-04-29T05:48:36;26.07;;;17.27;;
15331;SDS011;7766;51.534;6.722;2023-04-29T05:49:38;24.87;;;17.03;;
15331;SDS011;7766;51.534;6.722;2023-04-29T05:50:39;24.40;;;16.77;;
15331;SDS011;7766;51.534;6.722;2023-04-29T05:51:40;26.33;;;17.07;;
15331;SDS011;7766;51.534;6.722;2023-04-29T05:52:41;24.07;;;16.27;;
15331;SDS011;7766;51.534;6.722;2023-04-29T05:53:42;26.07;;;16.77;;
15331;SDS011;7766;51.534;6.722;2023-04-29T05:54:43;23.00;;;15.57;;
15331;SDS011;7766;51.534;6.722;2023-04-29T05:55:44;22.63;;;16.40;;
15331;SDS011;7766;51.534;6.722;2023-04-29T05:56:45;23.30;;;15.73;;
15331;SDS011;7766;51.534;6.722;2023-04-29T05:57:46;20.40;;;15.07;;
15331;SDS011;7766;51.534;6.722;2023-04-29T05:58:47;23.90;;;16.27;;
15331;SDS011;7766;51.534;6.722;2023-04-29T05:59:48;25.70;;;16.03;;
15331;SDS011;7766;51.534;6.722;2023-04-29T06:00:49;23.90;;;17.47;;
15331;SDS011;7766;51.534;6.722;2023-04-29T06:01:50;21.00;;;15.33;;
15331;SDS011;7766;51.534;6.722;2023-04-29T06:02:51;21.43;;;15.83;;
15331;SDS011;7766;51.534;6.722;2023-04-29T06:03:52;22.63;;;15.70;;
15331;SDS011;7766;51.534;6.722;2023-04-29T06:04:53;22.83;;;15.77;;
15331;SDS011;7766;51.534;6.722;2023-04-29T06:05:54;26.03;;;16.87;;
15331;SDS011;7766;51.534;6.722;2023-04-29T06:06:56;25.17;;;16.53;;
15331;SDS011;7766;51.534;6.722;2023-04-29T06:07:57;24.93;;;16.87;;
15331;SDS011;7766;51.534;6.722;2023-04-29T06:08:59;22.83;;;16.13;;
15331;SDS011;7766;51.534;6.722;2023-04-29T06:10:00;25.03;;;15.93;;
15331;SDS011;7766;51.534;6.722;2023-04-29T06:11:01;24.53;;;16.63;;
15331;SDS011;7766;51.534;6.722;2023-04-29T06:12:04;21.83;;;15.23;;
15331;SDS011;7766;51.534;6.722;2023-04-29T06:13:05;21.17;;;15.60;;
15331;SDS011;7766;51.534;6.722;2023-04-29T06:14:06;23.70;;;16.93;;
15331;SDS011;7766;51.534;6.722;2023-04-29T06:15:07;22.20;;;15.40;;
15331;SDS011;7766;51.534;6.722;2023-04-29T06:16:08;20.93;;;16.13;;
15331;SDS011;7766;51.534;6.722;2023-04-29T06:17:10;22.53;;;15.50;;
15331;SDS011;7766;51.534;6.722;2023-04-29T06:18:12;22.40;;;16.67;;